Time;durP1;ratioP1;P1;durP2;ratioP2;P2;SDS_P1;SDS_P2;PMS_P1;PMS_P2;Temp;Humidity;BMP_temperature;BMP_pressure;BME280_temperature;BME280_humidity;BME280_pressure;Samples;Min_cycle;Max_cycle;Signal;HPM_P1;HPM_P2
2023/06/09 00:02:06;;;;;;;8.00;4.65;;;;;;;18.80;80.74;94653.34;5071342;28;20171;-82
2023/06/09 00:04:35;;;;;;;7.13;3.45;;;;;;;18.76;81.00;94649.63;5069765;28;20178;-82
2023/06/09 00:07:02;;;;;;;6.75;3.65;;;;;;;18.75;81.19;94644.56;5073048;28;20542;-82
2023/06/09 00:09:29;;;;;;;7.03;3.85;;;;;;;18.60;81.35;94636.53;5072317;28;20539;-82
2023/06/09 00:11:54;;;;;;;4.78;3.40;;;;;;;18.42;81.84;94603.19;5071843;28;20213;-82
2023/06/09 00:14:20;;;;;;;9.75;3.40;;;;;;;18.29;82.13;94596.50;5071547;28;20657;-82
2023/06/09 00:16:46;;;;;;;7.25;3.38;;;;;;;18.54;82.07;94650.91;5073111;28;20154;-82
2023/06/09 00:19:18;;;;;;;4.43;3.15;;;;;;;18.38;82.07;94628.75;5073011;28;20233;-82
2023/06/09 00:21:49;;;;;;;5.13;3.20;;;;;;;18.31;82.33;94623.69;5072755;28;20154;-82
2023/06/09 00:24:19;;;;;;;6.03;2.72;;;;;;;18.36;81.60;94630.88;5071567;28;20174;-83
2023/06/09 00:26:49;;;;;;;8.65;3.30;;;;;;;18.27;82.09;94630.59;5072605;28;20155;-82
2023/06/09 00:29:16;;;;;;;4.38;3.72;;;;;;;18.37;82.17;94654.63;5071280;28;20171;-83
2023/06/09 00:31:42;;;;;;;4.40;2.88;;;;;;;18.22;81.91;94635.13;5072753;28;20637;-82
2023/06/09 00:34:08;;;;;;;8.63;3.65;;;;;;;18.34;82.15;94657.78;5071437;28;20621;-81
2023/06/09 00:36:34;;;;;;;5.32;2.90;;;;;;;18.35;82.14;94639.94;5071327;28;20223;-82
2023/06/09 00:38:59;;;;;;;5.32;3.45;;;;;;;18.35;82.55;94643.41;5072113;28;20167;-82
2023/06/09 00:41:25;;;;;;;4.90;3.17;;;;;;;18.10;82.35;94601.53;5071796;28;20166;-82
2023/06/09 00:43:51;;;;;;;3.28;2.97;;;;;;;18.00;82.34;94584.72;5071727;28;20186;-82
2023/06/09 00:46:17;;;;;;;6.32;3.63;;;;;;;18.21;82.63;94618.34;5070760;28;20640;-82
2023/06/09 00:48:42;;;;;;;5.25;3.15;;;;;;;18.03;82.42;94613.50;5072447;28;20638;-83
2023/06/09 00:51:08;;;;;;;4.20;3.20;;;;;;;18.17;82.89;94643.09;5072553;28;20167;-83
2023/06/09 00:53:33;;;;;;;6.25;3.97;;;;;;;18.01;84.35;94635.06;5071681;28;20402;-82
2023/06/09 00:55:59;;;;;;;4.72;3.42;;;;;;;17.78;83.94;94590.25;5072753;28;20185;-82
2023/06/09 00:58:25;;;;;;;5.82;3.22;;;;;;;18.05;84.07;94632.69;5072488;28;20692;-82
2023/06/09 01:00:51;;;;;;;6.57;3.42;;;;;;;18.08;84.09;94635.63;5072540;28;20182;-82
2023/06/09 01:03:16;;;;;;;14.93;4.80;;;;;;;17.69;84.12;94581.19;5072087;28;20247;-82
2023/06/09 01:05:48;;;;;;;10.25;3.78;;;;;;;18.01;84.43;94631.59;5073085;28;20175;-82
2023/06/09 01:08:22;;;;;;;6.05;3.60;;;;;;;18.02;84.20;94641.19;5072501;28;20587;-82
2023/06/09 01:11:15;;;;;;;10.75;3.40;;;;;;;17.88;84.50;94616.94;5072881;28;20159;-81
2023/06/09 01:13:53;;;;;;;9.45;3.70;;;;;;;17.97;84.70;94634.00;5069184;28;20185;-82
2023/06/09 01:16:32;;;;;;;5.75;3.22;;;;;;;17.60;84.60;94583.50;5071052;28;20261;-83
2023/06/09 01:19:05;;;;;;;9.02;4.13;;;;;;;17.79;84.80;94615.03;5068533;28;20727;-81
2023/06/09 01:21:40;;;;;;;11.95;6.70;;;;;;;17.75;84.55;94613.94;5075375;28;20625;-81
2023/06/09 01:24:09;;;;;;;9.27;5.15;;;;;;;17.84;84.51;94631.81;5055911;28;20166;-82
2023/06/09 01:26:38;;;;;;;8.57;3.63;;;;;;;17.58;83.40;94603.47;5071075;28;20263;-82
2023/06/09 01:29:05;;;;;;;5.40;4.20;;;;;;;17.43;85.04;94611.38;5070783;28;20508;-82
2023/06/09 01:31:32;;;;;;;9.70;4.10;;;;;;;17.39;85.55;94616.41;5055556;28;20630;-82
2023/06/09 01:34:00;;;;;;;6.45;4.10;;;;;;;17.35;85.73;94649.94;5069781;28;20793;-82
2023/06/09 01:36:27;;;;;;;6.47;4.78;;;;;;;17.06;84.88;94595.50;5055373;28;20566;-79
2023/06/09 01:38:52;;;;;;;9.98;6.20;;;;;;;17.32;85.40;94627.31;5055464;28;20614;-79
2023/06/09 01:41:18;;;;;;;8.90;6.35;;;;;;;17.38;85.41;94630.00;5065717;28;20178;-80
2023/06/09 01:43:43;;;;;;;11.55;7.60;;;;;;;17.54;83.77;94655.63;5074670;28;20178;-80
2023/06/09 01:46:09;;;;;;;8.02;5.47;;;;;;;17.51;84.89;94661.47;5074636;28;20158;-80
2023/06/09 01:48:43;;;;;;;6.90;4.88;;;;;;;17.49;84.79;94647.59;5074356;28;20585;-80
2023/06/09 01:51:15;;;;;;;8.02;4.82;;;;;;;17.47;84.21;94649.75;5074890;28;20204;-79
2023/06/09 01:53:49;;;;;;;3.70;3.05;;;;;;;17.37;78.36;94639.84;5073139;28;20171;-79
2023/06/09 01:56:21;;;;;;;4.68;3.45;;;;;;;17.49;74.22;94653.72;5072092;28;20425;-79
2023/06/09 01:58:51;;;;;;;3.80;3.00;;;;;;;17.49;72.39;94636.97;5073293;28;20656;-79
2023/06/09 02:01:17;;;;;;;3.45;2.80;;;;;;;17.60;71.19;94657.25;5074997;28;20168;-79
2023/06/09 02:03:44;;;;;;;7.43;3.20;;;;;;;17.55;71.16;94662.56;5073635;28;20907;-79
2023/06/09 02:06:12;;;;;;;6.25;3.10;;;;;;;17.63;70.70;94654.91;5072945;28;20765;-80
2023/06/09 02:08:38;;;;;;;3.83;2.47;;;;;;;17.53;69.66;94632.72;5074019;28;20209;-80
2023/06/09 02:11:04;;;;;;;5.45;3.15;;;;;;;17.55;70.12;94634.09;5073200;28;20544;-80
2023/06/09 02:13:29;;;;;;;6.07;3.33;;;;;;;17.64;69.25;94637.84;5074068;28;20170;-79
2023/06/09 02:15:55;;;;;;;5.30;2.87;;;;;;;17.58;69.24;94644.19;5073661;28;20409;-79
2023/06/09 02:18:21;;;;;;;3.63;2.95;;;;;;;17.60;69.62;94658.06;5073893;28;20197;-80
2023/06/09 02:20:47;;;;;;;5.63;2.80;;;;;;;17.55;69.88;94655.38;5074231;28;20522;-79
2023/06/09 02:23:15;;;;;;;3.78;2.88;;;;;;;17.43;69.62;94632.69;5074092;28;20190;-79
2023/06/09 02:25:40;;;;;;;4.35;2.65;;;;;;;17.56;69.67;94658.81;5073800;28;20995;-80
2023/06/09 02:28:08;;;;;;;4.55;2.70;;;;;;;17.19;70.24;94611.00;5073713;28;20221;-80
2023/06/09 02:30:34;;;;;;;4.95;2.80;;;;;;;17.37;69.75;94621.22;5072040;28;21001;-80
2023/06/09 02:33:00;;;;;;;6.00;2.92;;;;;;;17.48;70.12;94654.00;5071607;28;20525;-80
2023/06/09 02:35:26;;;;;;;3.95;2.70;;;;;;;17.46;70.37;94653.47;5073739;28;20197;-80
2023/06/09 02:37:52;;;;;;;3.45;2.72;;;;;;;17.44;69.88;94656.38;5072724;28;20468;-79
2023/06/09 02:40:19;;;;;;;4.57;3.22;;;;;;;17.21;70.69;94628.28;5073997;28;20269;-79
2023/06/09 02:42:44;;;;;;;6.30;3.97;;;;;;;17.26;71.15;94638.19;5074180;28;20204;-80
2023/06/09 02:45:10;;;;;;;5.13;3.33;;;;;;;17.14;71.14;94618.94;5073346;28;20397;-80
2023/06/09 02:47:35;;;;;;;3.80;2.47;;;;;;;17.07;70.84;94613.06;5072012;28;20202;-80
2023/06/09 02:50:01;;;;;;;3.13;2.50;;;;;;;17.34;70.60;94665.09;5073437;28;20612;-80
2023/06/09 02:52:31;;;;;;;6.75;2.45;;;;;;;17.10;70.96;94639.94;5073279;28;20175;-80
2023/06/09 02:54:57;;;;;;;5.75;2.95;;;;;;;17.17;71.04;94650.38;5072769;28;20409;-80
2023/06/09 02:57:22;;;;;;;5.00;3.28;;;;;;;17.12;71.09;94655.66;5072088;28;20498;-79
2023/06/09 02:59:47;;;;;;;3.70;2.87;;;;;;;16.90;71.72;94623.84;5070530;28;20418;-79
2023/06/09 03:02:13;;;;;;;4.45;2.88;;;;;;;17.18;71.18;94663.41;5072504;28;20182;-80
2023/06/09 03:04:40;;;;;;;5.97;3.13;;;;;;;17.07;71.15;94639.66;5072509;28;20962;-79
2023/06/09 03:07:09;;;;;;;4.82;3.25;;;;;;;17.14;71.54;94659.66;5073098;28;20178;-79
2023/06/09 03:09:35;;;;;;;4.82;3.22;;;;;;;17.17;71.93;94653.81;5072697;28;20178;-80
2023/06/09 03:12:00;;;;;;;6.47;3.38;;;;;;;17.14;72.29;94640.22;5072910;28;20312;-80
2023/06/09 03:14:26;;;;;;;4.82;2.88;;;;;;;17.16;71.75;94638.91;5072557;28;20251;-78
2023/06/09 03:16:52;;;;;;;5.82;2.85;;;;;;;17.12;71.46;94629.06;5072829;28;20182;-78
2023/06/09 03:19:18;;;;;;;5.97;4.13;;;;;;;17.24;71.68;94649.06;5072951;28;20174;-77
2023/06/09 03:21:43;;;;;;;8.55;3.80;;;;;;;17.27;73.76;94653.91;5071509;28;20528;-79
2023/06/09 03:24:09;;;;;;;8.05;4.47;;;;;;;17.27;74.94;94645.09;5072350;28;20178;-77
2023/06/09 03:26:35;;;;;;;9.32;3.35;;;;;;;17.24;75.13;94632.31;5071254;28;20519;-78
2023/06/09 03:29:00;;;;;;;6.85;3.53;;;;;;;17.15;75.06;94604.59;5070365;28;20190;-77
2023/06/09 03:31:25;;;;;;;7.30;3.60;;;;;;;17.53;75.41;94640.72;5071929;28;20166;-78
2023/06/09 03:33:51;;;;;;;11.02;4.45;;;;;;;17.62;75.51;94641.88;5071165;28;20178;-79
2023/06/09 03:36:16;;;;;;;8.40;3.55;;;;;;;17.48;74.57;94638.81;5072277;28;20258;-79
2023/06/09 03:38:42;;;;;;;5.40;3.50;;;;;;;17.32;75.35;94626.50;5072372;28;20170;-79
2023/06/09 03:41:07;;;;;;;13.25;3.60;;;;;;;17.46;75.59;94651.59;5072302;28;20181;-79
2023/06/09 03:43:32;;;;;;;8.18;3.35;;;;;;;17.42;76.07;94645.19;5072380;28;20174;-79
2023/06/09 03:45:58;;;;;;;14.13;4.22;;;;;;;17.32;76.59;94637.13;5073224;28;20178;-79
2023/06/09 03:48:23;;;;;;;5.63;3.72;;;;;;;17.33;77.16;94636.09;5072252;28;20201;-78
2023/06/09 03:50:49;;;;;;;9.50;4.47;;;;;;;17.51;77.82;94658.81;5070693;28;20166;-78
2023/06/09 03:53:14;;;;;;;9.13;3.85;;;;;;;17.50;78.36;94650.00;5071976;28;20182;-78
2023/06/09 03:55:40;;;;;;;7.68;4.18;;;;;;;17.52;78.09;94637.25;5071776;28;20190;-78
2023/06/09 03:58:06;;;;;;;10.00;4.05;;;;;;;17.65;78.50;94658.09;5071240;28;20229;-78
2023/06/09 04:00:32;;;;;;;7.00;4.00;;;;;;;17.73;79.25;94654.94;5071663;28;20186;-77
2023/06/09 04:02:57;;;;;;;6.85;3.20;;;;;;;17.66;78.96;94640.25;5071431;28;20611;-77
2023/06/09 04:05:24;;;;;;;10.48;3.83;;;;;;;17.82;78.25;94651.78;5070958;28;20170;-78
2023/06/09 04:07:49;;;;;;;13.20;3.80;;;;;;;17.76;78.28;94644.84;5070386;28;20194;-79
2023/06/09 04:10:15;;;;;;;11.43;3.35;;;;;;;17.97;78.02;94655.31;5071763;28;20172;-79
2023/06/09 04:12:43;;;;;;;12.68;4.82;;;;;;;18.15;78.32;94655.91;5070583;28;20253;-78
2023/06/09 04:15:09;;;;;;;19.50;10.60;;;;;;;18.34;78.54;94665.78;5071364;28;20163;-79
2023/06/09 04:17:36;;;;;;;22.55;12.70;;;;;;;18.49;77.55;94651.72;5071584;28;20167;-78
2023/06/09 04:20:04;;;;;;;24.38;13.93;;;;;;;18.70;75.08;94647.22;5070575;28;20189;-78
2023/06/09 04:22:30;;;;;;;18.02;10.75;;;;;;;18.89;74.56;94650.16;5070086;28;20177;-78
2023/06/09 04:24:56;;;;;;;10.80;5.25;;;;;;;19.30;72.99;94673.06;5071454;28;20166;-78
2023/06/09 04:27:23;;;;;;;32.13;17.95;;;;;;;19.33;71.33;94653.84;5071455;28;20277;-78
2023/06/09 04:29:49;;;;;;;14.25;9.35;;;;;;;19.47;70.48;94646.06;5070455;28;20154;-79
2023/06/09 04:32:16;;;;;;;18.80;7.57;;;;;;;19.66;69.65;94660.47;5069894;28;20170;-80
2023/06/09 04:34:45;;;;;;;23.63;15.20;;;;;;;19.94;69.34;94685.75;5069812;28;20225;-79
2023/06/09 04:37:12;;;;;;;19.67;12.65;;;;;;;20.00;68.80;94671.28;5069765;28;20181;-78
2023/06/09 04:39:41;;;;;;;12.32;5.78;;;;;;;20.16;67.39;94685.38;5067717;28;20227;-77
2023/06/09 04:42:07;;;;;;;16.58;8.25;;;;;;;20.25;66.91;94681.06;5068668;28;20201;-77
2023/06/09 04:44:33;;;;;;;13.15;7.15;;;;;;;20.49;65.92;94683.91;5068595;28;20182;-76
2023/06/09 04:46:59;;;;;;;15.65;7.72;;;;;;;20.78;64.93;94681.31;5068792;28;20614;-76
2023/06/09 04:49:26;;;;;;;16.38;6.07;;;;;;;21.07;63.57;94699.03;5067042;28;20178;-76
2023/06/09 04:51:54;;;;;;;12.02;6.68;;;;;;;21.29;63.17;94682.53;5068879;28;20174;-77
2023/06/09 04:54:20;;;;;;;9.30;5.30;;;;;;;21.58;62.32;94697.81;5067100;28;20595;-77
2023/06/09 04:56:52;;;;;;;10.18;4.70;;;;;;;21.80;60.98;94706.13;5068890;28;20189;-79
2023/06/09 04:59:20;;;;;;;11.20;4.95;;;;;;;22.05;60.05;94705.13;5068935;28;20175;-78
2023/06/09 05:01:47;;;;;;;10.82;4.55;;;;;;;22.35;60.77;94685.16;5067652;28;20185;-79
2023/06/09 05:04:16;;;;;;;11.50;5.68;;;;;;;22.85;59.54;94703.25;5068847;28;20175;-79
2023/06/09 05:06:42;;;;;;;8.95;5.10;;;;;;;23.23;58.84;94703.22;5068968;28;20200;-79
2023/06/09 05:09:08;;;;;;;15.30;4.30;;;;;;;23.46;57.42;94691.53;5068746;28;20194;-79
2023/06/09 05:11:35;;;;;;;7.38;3.90;;;;;;;23.94;55.77;94694.72;5068937;28;20178;-80
2023/06/09 05:14:00;;;;;;;9.30;4.45;;;;;;;24.33;55.04;94690.75;5068894;28;20174;-78
2023/06/09 05:16:27;;;;;;;15.20;3.80;;;;;;;24.71;55.58;94688.59;5067934;28;20182;-79
2023/06/09 05:18:53;;;;;;;6.22;4.07;;;;;;;25.14;52.70;94687.06;5068884;28;20178;-80
2023/06/09 05:21:18;;;;;;;8.85;4.47;;;;;;;25.48;51.44;94691.09;5068746;28;20299;-78
2023/06/09 05:23:44;;;;;;;11.38;3.50;;;;;;;25.89;51.87;94686.25;5068902;28;20174;-78
2023/06/09 05:26:10;;;;;;;10.60;3.88;;;;;;;26.26;49.71;94700.41;5068568;28;20178;-78
2023/06/09 05:28:36;;;;;;;11.90;5.72;;;;;;;26.50;47.21;94679.16;5068545;28;20712;-79
2023/06/09 05:31:01;;;;;;;7.55;5.25;;;;;;;26.74;46.19;94697.63;5068174;28;20189;-79
2023/06/09 05:33:27;;;;;;;8.57;4.45;;;;;;;26.84;48.14;94689.22;5068646;28;20617;-79
2023/06/09 05:35:52;;;;;;;7.93;4.18;;;;;;;27.21;45.37;94681.63;5068526;28;20256;-79
2023/06/09 05:38:19;;;;;;;9.48;3.65;;;;;;;27.58;44.61;94675.53;5068601;28;20207;-78
2023/06/09 05:40:45;;;;;;;12.90;7.75;;;;;;;27.95;44.76;94684.00;5068707;28;20260;-78
2023/06/09 05:43:10;;;;;;;8.57;5.32;;;;;;;28.07;43.45;94682.22;5068438;28;20224;-78
2023/06/09 05:45:36;;;;;;;7.18;4.70;;;;;;;28.03;43.23;94661.53;5068683;28;20291;-76
2023/06/09 05:48:01;;;;;;;12.57;7.18;;;;;;;27.90;43.30;94657.94;5068612;28;20217;-79
2023/06/09 05:50:26;;;;;;;11.48;6.22;;;;;;;28.30;43.96;94674.63;5069073;28;20167;-77
2023/06/09 05:52:52;;;;;;;9.90;5.10;;;;;;;28.09;42.12;94680.00;5068482;28;20174;-77
2023/06/09 05:55:17;;;;;;;10.93;4.30;;;;;;;27.96;45.09;94675.56;5068597;28;20182;-78
2023/06/09 05:57:46;;;;;;;9.93;3.80;;;;;;;27.99;43.63;94674.94;5065684;28;20578;-77
2023/06/09 06:00:11;;;;;;;11.30;6.55;;;;;;;27.83;43.46;94664.97;5068918;28;20185;-78
2023/06/09 06:02:40;;;;;;;11.07;4.22;;;;;;;27.95;43.53;94682.09;5068052;28;20273;-77
2023/06/09 06:05:06;;;;;;;9.10;5.72;;;;;;;28.03;43.71;94675.84;5068472;28;20210;-78
2023/06/09 06:07:36;;;;;;;5.32;3.85;;;;;;;28.11;43.64;94669.59;5070264;28;20209;-78
2023/06/09 06:10:03;;;;;;;10.80;5.13;;;;;;;27.95;44.18;94657.72;5072050;28;20174;-78
2023/06/09 06:12:29;;;;;;;9.25;3.88;;;;;;;28.03;45.42;94670.44;5071696;28;20182;-78
2023/06/09 06:14:55;;;;;;;6.45;4.03;;;;;;;27.98;45.86;94673.34;5071973;28;20174;-78
2023/06/09 06:17:20;;;;;;;14.10;4.47;;;;;;;28.01;44.99;94672.69;5072047;28;20181;-78
2023/06/09 06:19:45;;;;;;;10.13;3.53;;;;;;;28.01;44.52;94674.59;5071645;28;20641;-78
2023/06/09 06:22:11;;;;;;;8.45;4.30;;;;;;;28.07;46.24;94665.19;5071582;28;20179;-78
2023/06/09 06:24:36;;;;;;;6.65;3.55;;;;;;;28.07;45.69;94671.38;5071714;28;20566;-78
2023/06/09 06:27:02;;;;;;;5.65;3.28;;;;;;;27.95;45.63;94646.13;5070279;28;20673;-78
2023/06/09 06:29:29;;;;;;;6.40;3.85;;;;;;;27.94;45.24;94666.19;5071442;28;20344;-78
2023/06/09 06:31:54;;;;;;;12.98;4.18;;;;;;;27.92;45.32;94663.81;5072188;28;20184;-79
2023/06/09 06:34:20;;;;;;;14.05;3.90;;;;;;;27.97;43.81;94660.91;5071355;28;20252;-78
2023/06/09 06:36:45;;;;;;;7.53;3.88;;;;;;;27.88;43.38;94667.47;5071413;28;20181;-78
2023/06/09 06:39:12;;;;;;;8.02;3.80;;;;;;;27.61;45.14;94653.25;5071250;28;20175;-78
2023/06/09 06:41:38;;;;;;;7.32;4.32;;;;;;;27.66;48.22;94660.41;5071186;28;20174;-78
2023/06/09 06:44:04;;;;;;;7.13;4.20;;;;;;;27.82;45.12;94668.78;5069888;28;20255;-79
2023/06/09 06:46:31;;;;;;;8.20;4.00;;;;;;;27.88;44.09;94662.06;5071114;28;20179;-78
2023/06/09 06:48:57;;;;;;;6.55;4.47;;;;;;;27.91;44.31;94664.94;5071181;28;20299;-79
2023/06/09 06:51:22;;;;;;;15.73;4.03;;;;;;;27.81;43.98;94665.28;5071265;28;20264;-79
2023/06/09 06:53:47;;;;;;;5.70;3.70;;;;;;;27.79;43.41;94640.44;5071484;28;20182;-79
2023/06/09 06:56:13;;;;;;;11.88;4.53;;;;;;;27.85;42.44;94644.56;5071133;28;20633;-78
2023/06/09 06:58:38;;;;;;;10.45;3.83;;;;;;;27.83;46.12;94668.47;5070671;28;20214;-79
2023/06/09 07:01:04;;;;;;;5.35;4.03;;;;;;;27.84;44.61;94645.69;5070927;28;20162;-78
2023/06/09 07:03:29;;;;;;;9.43;3.85;;;;;;;27.89;43.34;94653.63;5071015;28;20178;-79
2023/06/09 07:05:55;;;;;;;5.05;3.55;;;;;;;27.90;45.81;94659.84;5070563;28;20718;-79
2023/06/09 07:08:21;;;;;;;9.55;3.33;;;;;;;28.12;47.67;94649.53;5070672;28;20574;-79
2023/06/09 07:10:47;;;;;;;9.77;4.32;;;;;;;28.47;43.76;94668.31;5070573;28;20182;-79
2023/06/09 07:13:12;;;;;;;10.55;4.55;;;;;;;27.96;42.49;94662.03;5070450;28;20183;-78
2023/06/09 07:15:38;;;;;;;11.50;4.85;;;;;;;27.73;45.95;94647.16;5070464;28;20171;-78
2023/06/09 07:18:05;;;;;;;12.98;5.03;;;;;;;27.65;46.22;94643.38;5070233;28;20239;-79
2023/06/09 07:20:30;;;;;;;8.80;4.20;;;;;;;28.03;46.48;94661.53;5070597;28;20174;-78
2023/06/09 07:22:56;;;;;;;5.88;3.55;;;;;;;28.31;45.97;94659.97;5070231;28;20261;-79
2023/06/09 07:25:21;;;;;;;9.63;3.92;;;;;;;28.38;46.04;94649.41;5070581;28;20298;-78
2023/06/09 07:27:47;;;;;;;7.80;4.07;;;;;;;28.42;42.58;94655.78;5069126;28;20707;-78
2023/06/09 07:30:13;;;;;;;9.85;4.50;;;;;;;28.26;42.60;94662.09;5070927;28;20192;-79
2023/06/09 07:32:41;;;;;;;7.30;4.25;;;;;;;27.95;43.42;94652.31;5070330;28;20189;-79
2023/06/09 07:35:07;;;;;;;12.70;3.92;;;;;;;28.03;44.52;94656.09;5069257;28;20206;-79
2023/06/09 07:37:36;;;;;;;6.40;3.85;;;;;;;27.65;44.43;94640.69;5070336;28;20174;-79
2023/06/09 07:40:03;;;;;;;9.32;3.90;;;;;;;27.80;46.14;94658.28;5070360;28;20189;-79
2023/06/09 07:42:29;;;;;;;9.88;4.00;;;;;;;28.10;46.57;94632.84;5070135;28;20178;-79
2023/06/09 07:44:54;;;;;;;7.35;3.72;;;;;;;28.39;47.97;94623.13;5069547;28;20584;-79
2023/06/09 07:47:20;;;;;;;18.77;4.88;;;;;;;28.95;47.61;94645.41;5070946;28;20232;-78
2023/06/09 07:49:45;;;;;;;7.75;3.90;;;;;;;29.10;42.49;94631.22;5069718;28;20181;-78
2023/06/09 07:52:11;;;;;;;6.22;3.85;;;;;;;29.36;43.56;94647.28;5068183;28;20185;-78
2023/06/09 07:54:36;;;;;;;6.35;4.22;;;;;;;29.36;41.82;94633.72;5069478;28;20265;-79
2023/06/09 07:57:02;;;;;;;12.13;3.65;;;;;;;29.36;43.52;94639.94;5069482;28;20229;-79
2023/06/09 07:59:27;;;;;;;10.80;4.28;;;;;;;29.25;45.33;94623.25;5069827;28;20174;-79
2023/06/09 08:01:53;;;;;;;5.60;3.72;;;;;;;28.94;42.92;94625.63;5069592;28;20257;-78
2023/06/09 08:04:18;;;;;;;9.00;3.63;;;;;;;28.82;44.58;94620.13;5069716;28;20570;-79
2023/06/09 08:06:45;;;;;;;6.85;3.70;;;;;;;28.65;41.67;94609.41;5069371;28;20656;-79
2023/06/09 08:09:10;;;;;;;9.55;3.53;;;;;;;28.69;42.96;94637.44;5069535;28;20195;-79
2023/06/09 08:11:38;;;;;;;8.35;3.83;;;;;;;28.46;43.00;94640.44;5070089;28;20190;-78
2023/06/09 08:14:04;;;;;;;5.00;3.47;;;;;;;28.20;43.12;94641.72;5067864;28;20187;-77
2023/06/09 08:16:31;;;;;;;10.10;4.50;;;;;;;27.76;45.37;94638.41;5070625;28;20178;-77
2023/06/09 08:18:56;;;;;;;8.68;4.07;;;;;;;28.08;44.46;94637.78;5070802;28;20181;-78
2023/06/09 08:21:22;;;;;;;11.10;4.82;;;;;;;27.86;44.75;94619.09;5070157;28;20579;-76
2023/06/09 08:23:48;;;;;;;8.20;4.15;;;;;;;27.63;45.37;94629.38;5069864;28;20205;-76
2023/06/09 08:26:13;;;;;;;10.07;4.68;;;;;;;27.27;46.75;94629.75;5070048;28;20253;-76
2023/06/09 08:28:39;;;;;;;4.45;3.40;;;;;;;26.98;47.11;94621.53;5070134;28;20194;-76
2023/06/09 08:31:06;;;;;;;8.05;4.25;;;;;;;26.84;46.41;94610.06;5068622;28;20253;-76
2023/06/09 08:33:33;;;;;;;11.65;4.35;;;;;;;26.89;50.64;94626.13;5069771;28;20182;-77
2023/06/09 08:36:02;;;;;;;6.93;4.20;;;;;;;27.06;52.92;94628.84;5070228;28;20657;-76
2023/06/09 08:38:28;;;;;;;6.38;4.07;;;;;;;27.42;51.98;94617.63;5070371;28;20202;-78
2023/06/09 08:41:00;;;;;;;7.20;4.00;;;;;;;27.81;50.78;94599.53;5070579;28;20225;-78
2023/06/09 08:43:26;;;;;;;12.40;4.72;;;;;;;28.12;44.60;94621.66;5069929;28;20186;-78
2023/06/09 08:45:53;;;;;;;8.20;4.20;;;;;;;28.09;47.04;94617.72;5070732;28;20668;-78
2023/06/09 08:48:20;;;;;;;6.80;4.43;;;;;;;28.25;50.96;94619.88;5070342;28;20714;-78
2023/06/09 08:50:46;;;;;;;8.65;4.07;;;;;;;28.38;46.71;94602.56;5070383;28;20235;-78
2023/06/09 08:53:13;;;;;;;7.07;4.38;;;;;;;28.50;46.60;94599.97;5070031;28;20603;-78
2023/06/09 08:55:39;;;;;;;7.22;4.00;;;;;;;28.49;47.91;94601.06;5070401;28;20209;-78
2023/06/09 08:58:05;;;;;;;6.55;4.57;;;;;;;28.56;48.87;94598.63;5070398;28;20739;-79
2023/06/09 09:00:34;;;;;;;6.88;3.92;;;;;;;28.77;50.70;94595.94;5069223;28;20200;-79
2023/06/09 09:02:59;;;;;;;7.88;4.35;;;;;;;28.98;47.09;94602.13;5070676;28;20571;-79
2023/06/09 09:05:24;;;;;;;4.93;3.38;;;;;;;28.93;47.21;94585.28;5071407;28;20190;-79
2023/06/09 09:07:50;;;;;;;9.93;5.18;;;;;;;29.10;48.67;94601.38;5071815;28;20197;-79
2023/06/09 09:10:16;;;;;;;5.43;4.30;;;;;;;28.63;44.50;94590.00;5071199;28;20166;-79
2023/06/09 09:12:49;;;;;;;6.85;4.38;;;;;;;28.52;47.20;94584.16;5070495;28;20174;-79
2023/06/09 09:15:15;;;;;;;9.45;4.22;;;;;;;28.56;47.77;94593.22;5069468;28;20166;-80
2023/06/09 09:17:41;;;;;;;7.72;4.72;;;;;;;28.61;49.42;94590.31;5070505;28;20174;-79
2023/06/09 09:20:07;;;;;;;7.47;4.53;;;;;;;28.70;50.38;94582.91;5070852;28;20182;-79
2023/06/09 09:22:43;;;;;;;5.95;4.22;;;;;;;28.80;44.76;94568.97;5070555;28;20170;-79
2023/06/09 09:25:08;;;;;;;9.20;4.20;;;;;;;28.30;45.16;94569.03;5070471;28;20158;-80
2023/06/09 09:27:34;;;;;;;8.60;4.80;;;;;;;28.02;46.13;94563.28;5069851;28;20221;-80
2023/06/09 09:29:59;;;;;;;18.42;5.05;;;;;;;28.02;47.05;94574.09;5070915;28;20159;-80
2023/06/09 09:32:27;;;;;;;8.63;4.13;;;;;;;28.14;51.19;94576.91;5070846;28;20258;-80
2023/06/09 09:34:52;;;;;;;10.27;5.30;;;;;;;28.04;48.11;94574.56;5069062;28;20170;-79
2023/06/09 09:37:18;;;;;;;9.02;5.00;;;;;;;27.78;45.70;94582.03;5067855;28;20664;-80
2023/06/09 09:39:50;;;;;;;9.70;4.55;;;;;;;27.70;49.06;94572.03;5068111;28;20657;-80
2023/06/09 09:42:17;;;;;;;13.57;4.63;;;;;;;27.63;47.23;94566.34;5070286;28;20220;-79
2023/06/09 09:44:46;;;;;;;7.72;4.85;;;;;;;27.35;48.01;94568.66;5072339;28;20213;-79
2023/06/09 09:47:19;;;;;;;6.72;4.07;;;;;;;27.40;46.42;94563.09;5071760;28;20174;-79
2023/06/09 09:49:50;;;;;;;9.98;4.47;;;;;;;27.51;49.23;94561.59;5071867;28;20186;-79
2023/06/09 09:52:23;;;;;;;8.15;4.35;;;;;;;27.74;45.46;94564.88;5070396;28;20186;-80
2023/06/09 09:54:51;;;;;;;12.05;4.90;;;;;;;27.63;48.83;94544.72;5071961;28;20174;-80
2023/06/09 09:57:17;;;;;;;7.00;4.50;;;;;;;27.60;46.97;94558.88;5072237;28;20225;-80
2023/06/09 09:59:43;;;;;;;11.30;4.47;;;;;;;27.65;48.18;94559.50;5074132;28;20560;-79
2023/06/09 10:02:17;;;;;;;10.23;4.40;;;;;;;27.58;48.81;94528.69;5073889;28;20204;-79
2023/06/09 10:04:43;;;;;;;8.23;4.00;;;;;;;27.81;46.64;94550.84;5071004;28;20174;-79
2023/06/09 10:07:10;;;;;;;7.55;4.15;;;;;;;27.63;47.39;94547.41;5070268;28;20190;-78
2023/06/09 10:09:36;;;;;;;7.32;3.67;;;;;;;27.62;50.16;94535.00;5071558;28;20324;-79
2023/06/09 10:12:03;;;;;;;4.65;3.25;;;;;;;27.78;45.21;94549.56;5071789;28;20212;-79
2023/06/09 10:14:29;;;;;;;6.30;3.17;;;;;;;27.74;47.07;94554.06;5071395;28;20182;-79
2023/06/09 10:16:57;;;;;;;9.82;3.65;;;;;;;27.81;48.41;94542.72;5070516;28;20171;-79
2023/06/09 10:19:24;;;;;;;10.10;4.57;;;;;;;27.94;51.20;94547.09;5071367;28;20179;-79
2023/06/09 10:21:52;;;;;;;10.77;3.95;;;;;;;27.89;46.13;94518.31;5071313;28;20189;-79
2023/06/09 10:24:18;;;;;;;12.50;4.63;;;;;;;28.12;49.08;94543.94;5071441;28;20564;-78
2023/06/09 10:26:47;;;;;;;8.27;4.18;;;;;;;28.13;47.06;94547.44;5071537;28;20688;-79
2023/06/09 10:29:14;;;;;;;6.93;4.80;;;;;;;28.15;48.68;94539.78;5073248;28;20652;-80
2023/06/09 10:31:43;;;;;;;9.32;4.22;;;;;;;28.10;49.05;94523.75;5073755;28;20189;-82
2023/06/09 10:34:11;;;;;;;5.95;4.25;;;;;;;27.93;45.08;94524.66;5072676;28;20635;-81
2023/06/09 10:36:41;;;;;;;9.13;4.95;;;;;;;27.28;47.35;94517.78;5073268;28;20187;-78
2023/06/09 10:39:20;;;;;;;9.00;5.07;;;;;;;27.36;48.10;94532.38;5071845;28;20185;-81
2023/06/09 10:42:25;;;;;;;9.52;4.38;;;;;;;27.47;48.06;94524.72;5074261;28;20190;-80
2023/06/09 10:45:02;;;;;;;5.97;3.15;;;;;;;27.72;48.23;94529.22;5071954;28;20554;-80
2023/06/09 10:47:45;;;;;;;5.10;3.38;;;;;;;27.85;43.61;94519.31;5072608;28;20553;-82
2023/06/09 10:50:33;;;;;;;8.18;3.38;;;;;;;27.85;46.62;94511.19;5071706;28;20227;-79
2023/06/09 10:53:03;;;;;;;6.00;3.75;;;;;;;27.81;45.13;94508.34;5070492;28;20182;-81
2023/06/09 10:55:30;;;;;;;6.65;2.85;;;;;;;27.74;47.52;94498.03;5070685;28;20178;-83
2023/06/09 10:57:57;;;;;;;10.23;3.83;;;;;;;27.95;47.90;94514.28;5071731;28;20218;-81
2023/06/09 11:00:24;;;;;;;6.40;3.60;;;;;;;28.09;46.13;94517.53;5072944;28;20190;-83
2023/06/09 11:03:11;;;;;;;4.38;2.85;;;;;;;28.18;44.32;94508.59;5071654;28;20653;-79
2023/06/09 11:05:57;;;;;;;7.55;3.10;;;;;;;28.21;41.61;94505.22;5063712;28;20193;-78
2023/06/09 11:08:22;;;;;;;7.13;3.30;;;;;;;28.08;40.31;94491.59;5072530;28;20234;-77
2023/06/09 11:10:48;;;;;;;5.72;3.20;;;;;;;28.07;42.28;94508.16;5072506;28;20232;-78
2023/06/09 11:13:41;;;;;;;4.70;2.83;;;;;;;28.13;39.98;94507.63;5072632;28;20253;-76
2023/06/09 11:16:08;;;;;;;4.55;2.53;;;;;;;28.04;41.64;94492.56;5072687;28;20174;-76
2023/06/09 11:18:34;;;;;;;3.75;2.63;;;;;;;28.13;44.30;94496.00;5072394;28;20202;-75
2023/06/09 11:21:13;;;;;;;5.20;3.05;;;;;;;28.29;45.00;94498.94;5072248;28;20202;-76
2023/06/09 11:24:07;;;;;;;6.20;2.30;;;;;;;28.40;39.58;94494.72;5071316;28;20162;-76
2023/06/09 11:26:34;;;;;;;4.93;2.70;;;;;;;28.31;43.92;94492.06;5065995;28;20194;-78
2023/06/09 11:29:03;;;;;;;4.45;2.90;;;;;;;28.24;41.24;94474.78;5072540;28;20273;-79
2023/06/09 11:31:29;;;;;;;3.35;2.70;;;;;;;28.26;41.00;94488.78;5069965;28;20166;-81
2023/06/09 11:33:55;;;;;;;6.47;2.72;;;;;;;28.47;41.86;94489.53;5071406;28;20196;-81